Time;durP1;ratioP1;P1;durP2;ratioP2;P2;SDS_P1;SDS_P2;PMS_P1;PMS_P2;Temp;Humidity;BMP_temperature;BMP_pressure;BME280_temperature;BME280_humidity;BME280_pressure;Samples;Min_cycle;Max_cycle;Signal;HPM_P1;HPM_P2
2021/05/18 00:01:49;;;;;;;13.83;11.15;;;;;;;13.77;79.75;98989.70;1744544;82;21029;-71
2021/05/18 00:04:16;;;;;;;14.83;10.88;;;;;;;13.77;79.72;98981.75;1712127;82;21781;-72
2021/05/18 00:06:43;;;;;;;13.13;11.08;;;;;;;13.75;79.68;98973.14;1744365;82;21017;-73
2021/05/18 00:11:54;;;;;;;14.15;12.23;;;;;;;13.73;79.60;98986.59;1744455;81;21087;-72
2021/05/18 00:14:25;;;;;;;17.15;12.53;;;;;;;13.74;79.71;98986.91;1743980;82;21395;-72
2021/05/18 00:16:53;;;;;;;14.67;12.00;;;;;;;13.75;79.82;98979.27;1744924;82;21520;-72
2021/05/18 00:19:20;;;;;;;13.25;11.40;;;;;;;13.75;79.86;98986.41;1744034;82;21904;-72
2021/05/18 00:21:46;;;;;;;16.07;10.98;;;;;;;13.70;79.98;98970.17;1744820;82;20957;-72
2021/05/18 00:24:13;;;;;;;16.77;11.15;;;;;;;13.65;80.12;98976.02;1743989;82;21009;-72
2021/05/18 00:26:39;;;;;;;16.67;11.10;;;;;;;13.61;80.13;98972.09;1744514;82;21081;-72
2021/05/18 00:29:07;;;;;;;12.90;11.20;;;;;;;13.60;80.13;98967.75;1742868;82;22365;-72
2021/05/18 00:31:34;;;;;;;13.28;11.35;;;;;;;13.60;80.13;98967.75;1744836;82;20981;-72
2021/05/18 00:34:02;;;;;;;14.85;11.83;;;;;;;13.61;80.28;98962.80;1744179;82;21040;-72
2021/05/18 00:36:29;;;;;;;15.15;12.53;;;;;;;13.60;80.39;98957.64;1744610;82;21042;-72
2021/05/18 00:38:55;;;;;;;14.63;12.18;;;;;;;13.58;80.63;98947.72;1739590;81;20969;-72
2021/05/18 00:41:22;;;;;;;13.30;11.45;;;;;;;13.55;80.69;98944.92;1744304;80;21779;-72
2021/05/18 00:43:48;;;;;;;12.30;10.23;;;;;;;13.53;80.60;98939.47;1744636;82;21049;-72
2021/05/18 00:46:15;;;;;;;13.85;11.40;;;;;;;13.51;80.50;98944.95;1745167;80;20997;-72
2021/05/18 00:48:56;;;;;;;11.75;10.15;;;;;;;13.48;80.39;98949.27;1734347;82;21104;-72
2021/05/18 00:51:11;;;;;;;12.33;9.58;;;;;;;13.46;80.32;98947.30;1735528;81;21077;-72
2021/05/18 00:53:39;;;;;;;11.57;9.58;;;;;;;13.45;80.24;98944.32;1744602;80;21841;-72
2021/05/18 00:58:26;;;;;;;14.98;9.73;;;;;;;13.40;80.15;98937.38;1744438;80;20995;-72
2021/05/18 00:59:03;;;;;;;10.68;9.55;;;;;;;13.36;80.11;98939.56;1739263;82;21059;-72
2021/05/18 01:01:30;;;;;;;10.48;9.20;;;;;;;13.32;80.11;98936.95;1744692;82;21048;-72
2021/05/18 01:03:57;;;;;;;13.60;9.70;;;;;;;13.30;80.13;98929.64;1713624;83;20966;-72
2021/05/18 01:06:29;;;;;;;15.13;10.10;;;;;;;13.29;80.08;98933.80;1744628;82;22514;-72
2021/05/18 01:09:07;;;;;;;15.35;9.80;;;;;;;13.27;80.03;98935.80;1738317;82;21030;-72
2021/05/18 01:11:32;;;;;;;11.55;9.50;;;;;;;13.24;79.97;98935.66;1715560;82;21053;-72
2021/05/18 01:14:04;;;;;;;14.65;10.00;;;;;;;13.23;79.89;98938.48;1743992;80;21050;-72
2021/05/18 01:16:33;;;;;;;10.55;9.45;;;;;;;13.21;79.89;98939.14;1693587;83;21068;-72
2021/05/18 01:19:00;;;;;;;11.57;10.08;;;;;;;13.21;79.91;98937.81;1721052;82;21787;-72
2021/05/18 01:21:27;;;;;;;12.80;10.00;;;;;;;13.21;79.91;98943.11;1744246;82;20973;-72
2021/05/18 01:23:54;;;;;;;14.75;10.35;;;;;;;13.21;79.95;98945.77;1744796;82;20965;-72
2021/05/18 01:26:21;;;;;;;11.48;9.78;;;;;;;13.21;80.04;98937.31;1738864;81;21546;-72
2021/05/18 01:28:49;;;;;;;13.88;11.03;;;;;;;13.21;80.07;98933.84;1743355;80;21030;-72
2021/05/18 01:31:19;;;;;;;14.98;12.03;;;;;;;13.19;80.14;98934.02;1744229;82;21769;-72
2021/05/18 01:33:45;;;;;;;17.12;13.50;;;;;;;13.16;80.19;98936.48;1744711;82;21009;-71
2021/05/18 01:36:15;;;;;;;18.20;14.60;;;;;;;13.15;80.20;98940.14;1744583;82;21535;-72
2021/05/18 01:38:55;;;;;;;18.73;14.78;;;;;;;13.12;80.27;98931.22;1743788;81;21001;-72
2021/05/18 01:44:03;;;;;;;16.67;14.05;;;;;;;13.07;80.45;98929.57;1717879;82;20982;-72
2021/05/18 01:46:30;;;;;;;16.37;14.13;;;;;;;13.03;80.47;98926.95;1744422;82;21029;-72
2021/05/18 01:49:03;;;;;;;18.02;14.25;;;;;;;13.02;80.46;98922.62;1744178;81;20990;-72
2021/05/18 01:51:34;;;;;;;17.62;14.75;;;;;;;13.05;80.66;98923.63;1742215;82;21735;-72
2021/05/18 01:54:08;;;;;;;19.12;15.68;;;;;;;13.05;80.66;98923.63;1744511;82;21017;-72
2021/05/18 01:56:53;;;;;;;17.23;14.83;;;;;;;13.05;80.59;98920.97;1714505;82;21782;-72
2021/05/18 01:59:24;;;;;;;18.37;14.63;;;;;;;13.05;80.66;98918.83;1743270;82;20997;-72
2021/05/18 02:01:55;;;;;;;18.65;14.80;;;;;;;13.06;80.62;98927.92;1742848;82;21053;-72
2021/05/18 02:04:26;;;;;;;19.15;15.13;;;;;;;13.07;80.66;98926.92;1744421;82;21038;-72
2021/05/18 02:06:53;;;;;;;19.62;15.50;;;;;;;13.09;80.67;98929.39;1744428;82;21060;-72
2021/05/18 02:09:20;;;;;;;18.52;14.30;;;;;;;13.08;80.70;98929.89;1744382;82;21793;-72
2021/05/18 02:11:50;;;;;;;17.05;13.62;;;;;;;13.08;80.71;98919.30;1742177;82;21037;-72
2021/05/18 02:14:40;;;;;;;16.20;14.05;;;;;;;13.08;80.62;98921.12;1727409;82;21461;-72
2021/05/18 02:16:47;;;;;;;16.32;13.22;;;;;;;13.06;80.51;98915.17;1737818;80;21061;-72
2021/05/18 02:19:27;;;;;;;19.70;14.18;;;;;;;13.03;80.43;98915.03;1745223;82;21094;-72
2021/05/18 02:24:38;;;;;;;18.12;13.75;;;;;;;13.02;80.43;98912.02;1721239;82;21822;-72
2021/05/18 02:27:05;;;;;;;18.30;14.45;;;;;;;13.00;80.37;98910.05;1739992;82;21009;-72
2021/05/18 02:29:31;;;;;;;18.30;13.90;;;;;;;12.99;80.44;98916.85;1744272;82;21036;-72
2021/05/18 02:31:59;;;;;;;16.75;13.62;;;;;;;12.98;80.52;98927.13;1744170;82;20989;-73
2021/05/18 02:34:28;;;;;;;17.85;13.38;;;;;;;12.99;80.55;98930.92;1733897;81;21919;-72
2021/05/18 02:36:55;;;;;;;15.98;13.53;;;;;;;13.00;80.59;98928.60;1742219;82;21468;-72
2021/05/18 02:39:21;;;;;;;18.02;14.10;;;;;;;13.01;80.56;98934.73;1744320;82;21033;-72
2021/05/18 02:41:48;;;;;;;16.40;13.90;;;;;;;13.02;80.60;98938.52;1734230;81;21117;-72
2021/05/18 02:44:25;;;;;;;17.65;14.20;;;;;;;13.05;80.62;98940.85;1733769;82;21108;-72
2021/05/18 02:49:32;;;;;;;16.45;13.83;;;;;;;13.13;80.89;98942.14;1734696;82;21101;-72
2021/05/18 02:51:59;;;;;;;15.20;13.60;;;;;;;13.19;81.16;98948.59;1733536;82;21053;-72
2021/05/18 02:54:27;;;;;;;15.30;13.15;;;;;;;13.26;81.34;98946.91;1734529;82;21484;-72
2021/05/18 02:56:59;;;;;;;16.25;12.98;;;;;;;13.32;81.47;98943.58;1734573;82;21637;-72
2021/05/18 02:59:24;;;;;;;22.80;19.55;;;;;;;13.36;81.48;98938.73;1735021;81;21465;-72
2021/05/18 03:02:01;;;;;;;25.35;22.73;;;;;;;13.39;81.47;98945.01;1734118;82;21073;-72
2021/05/18 03:04:25;;;;;;;27.60;24.37;;;;;;;13.44;81.53;98949.30;1668059;84;21585;-72
2021/05/18 03:06:52;;;;;;;29.75;26.68;;;;;;;13.49;81.51;98952.23;1733795;82;21112;-71
2021/05/18 03:09:20;;;;;;;20.20;18.15;;;;;;;13.53;81.53;98950.08;1731794;81;21622;-74
2021/05/18 03:11:50;;;;;;;16.73;14.45;;;;;;;13.58;81.55;98948.54;1730078;82;21759;-72
2021/05/18 03:14:18;;;;;;;17.95;14.33;;;;;;;13.62;81.59;98953.02;1728763;82;21062;-72
2021/05/18 03:16:47;;;;;;;15.43;13.60;;;;;;;13.65;81.65;98954.80;1728538;82;20994;-72
2021/05/18 03:19:15;;;;;;;15.90;14.03;;;;;;;13.70;81.77;98956.91;1734498;82;21054;-72
2021/05/18 03:21:44;;;;;;;17.30;14.07;;;;;;;13.74;81.84;98955.58;1718793;81;21005;-73
2021/05/18 03:24:11;;;;;;;17.62;13.95;;;;;;;13.75;81.91;98958.05;1735148;82;21773;-74
2021/05/18 03:26:57;;;;;;;17.85;13.80;;;;;;;13.80;82.02;98963.31;1732387;81;21018;-74
2021/05/18 03:29:17;;;;;;;15.98;13.43;;;;;;;13.83;82.14;98962.48;1726478;81;21017;-73
2021/05/18 03:34:32;;;;;;;15.20;13.60;;;;;;;13.91;82.33;98970.38;1733664;82;20997;-73
2021/05/18 03:36:59;;;;;;;18.57;13.40;;;;;;;13.95;82.41;98973.50;1732647;82;21678;-73
2021/05/18 03:39:25;;;;;;;14.93;13.32;;;;;;;13.99;82.50;98976.97;1723524;82;21084;-73
2021/05/18 03:42:05;;;;;;;13.83;12.40;;;;;;;14.03;82.52;98976.92;1741042;81;21073;-73
2021/05/18 03:52:26;;;;;;;13.70;11.38;;;;;;;14.03;82.58;98980.08;1744072;82;20985;-72
2021/05/18 04:16:50;;;;;;;11.18;8.18;;;;;;;14.21;82.99;98964.66;1743413;82;21041;-75
2021/05/18 04:21:18;;;;;;;8.38;7.58;;;;;;;14.31;83.06;98970.55;1744459;80;21020;-74
2021/05/18 04:52:49;;;;;;;8.60;7.65;;;;;;;14.66;83.27;98976.20;1734627;81;21073;-74
2021/05/18 05:00:23;;;;;;;12.95;7.50;;;;;;;14.71;83.29;98973.02;1744691;80;20972;-74
2021/05/18 05:08:22;;;;;;;10.30;8.65;;;;;;;14.75;83.29;98974.29;1747104;82;21845;-74
2021/05/18 05:15:38;;;;;;;36.85;13.75;;;;;;;14.84;83.41;98974.52;1745510;81;21442;-73
2021/05/18 05:18:04;;;;;;;71.22;21.80;;;;;;;14.87;83.44;98981.64;1747805;81;21097;-74
2021/05/18 05:20:31;;;;;;;49.40;21.10;;;;;;;14.91;83.56;98976.77;1747683;80;21772;-73
2021/05/18 05:22:58;;;;;;;19.80;11.48;;;;;;;14.97;83.57;98980.55;1747455;81;21000;-73
2021/05/18 05:25:24;;;;;;;10.63;8.03;;;;;;;15.03;83.66;98981.13;1745646;82;21055;-75
2021/05/18 05:27:51;;;;;;;10.15;8.48;;;;;;;15.11;83.67;98981.03;1747128;80;21589;-73
2021/05/18 05:30:19;;;;;;;9.45;7.90;;;;;;;15.15;83.58;98988.47;1748640;80;21341;-74
2021/05/18 05:32:45;;;;;;;9.78;8.25;;;;;;;15.18;83.52;98994.73;1747336;81;22486;-74
2021/05/18 05:35:12;;;;;;;12.28;7.58;;;;;;;15.21;83.38;98996.70;1747344;81;21035;-74
2021/05/18 05:37:38;;;;;;;8.78;7.87;;;;;;;15.21;83.21;98998.03;1746114;81;21516;-74
2021/05/18 05:40:06;;;;;;;9.53;7.83;;;;;;;15.21;83.18;99000.19;1747450;80;20996;-74
2021/05/18 05:42:33;;;;;;;9.83;8.03;;;;;;;15.22;83.02;98995.19;1742964;81;21022;-74
2021/05/18 05:44:59;;;;;;;10.55;7.92;;;;;;;15.22;82.93;98993.03;1744836;82;21693;-74
2021/05/18 05:47:25;;;;;;;8.35;7.47;;;;;;;15.24;82.93;98994.48;1744240;80;20975;-74
2021/05/18 05:49:53;;;;;;;9.58;7.22;;;;;;;15.30;82.97;98993.75;1744030;80;21019;-73
2021/05/18 05:52:22;;;;;;;10.90;7.78;;;;;;;15.34;82.91;98979.06;1739672;80;21050;-74
2021/05/18 05:54:49;;;;;;;9.78;7.12;;;;;;;15.37;82.75;98984.03;1744542;82;20982;-74
2021/05/18 05:57:17;;;;;;;9.13;7.65;;;;;;;15.42;82.58;98983.45;1742773;80;22253;-74
2021/05/18 05:59:44;;;;;;;13.70;8.60;;;;;;;15.48;82.51;98978.73;1743371;80;21023;-74
2021/05/18 06:02:10;;;;;;;11.53;7.37;;;;;;;15.55;82.52;98974.82;1740361;82;21058;-73
2021/05/18 06:04:37;;;;;;;9.83;6.80;;;;;;;15.65;82.48;98976.70;1740011;82;20996;-74
2021/05/18 06:07:03;;;;;;;8.65;6.55;;;;;;;15.72;82.36;98977.58;1719456;82;21007;-74
2021/05/18 06:09:31;;;;;;;8.68;6.58;;;;;;;15.77;81.90;98972.52;1744557;82;22676;-74
2021/05/18 06:12:17;;;;;;;10.32;6.80;;;;;;;15.80;81.48;98976.64;1744356;82;21050;-71
2021/05/18 06:47:35;;;;;;;7.50;5.28;;;;;;;16.29;79.04;98951.37;1787701;80;21034;-72
2021/05/18 06:50:29;;;;;;;7.70;5.30;;;;;;;16.37;78.86;98944.57;1777019;80;21787;-73
2021/05/18 06:52:36;;;;;;;6.60;5.08;;;;;;;16.44;78.55;98942.78;1772294;80;21133;-74
2021/05/18 06:55:06;;;;;;;5.62;5.00;;;;;;;16.51;78.39;98945.50;1790435;80;21018;-75
2021/05/18 06:57:35;;;;;;;6.72;5.12;;;;;;;16.54;77.80;98939.27;1758802;80;21082;-76
2021/05/18 07:02:44;;;;;;;6.95;5.25;;;;;;;16.77;77.49;98941.68;1746738;79;21777;-74
2021/05/18 07:10:45;;;;;;;6.62;4.70;;;;;;;17.15;76.54;98916.73;1809543;78;21056;-75
2021/05/18 07:13:13;;;;;;;8.48;4.97;;;;;;;17.31;76.36;98920.91;1790206;80;20974;-74
2021/05/18 07:15:40;;;;;;;4.62;4.20;;;;;;;17.48;76.11;98912.55;1790408;80;21784;-75
2021/05/18 07:18:07;;;;;;;7.58;4.70;;;;;;;17.66;75.74;98910.09;1789999;79;20991;-76
2021/05/18 07:20:35;;;;;;;8.53;4.95;;;;;;;17.80;75.14;98910.47;1801133;78;20985;-73
2021/05/18 07:23:11;;;;;;;5.75;4.22;;;;;;;17.83;73.87;98904.70;1789934;78;21228;-75
2021/05/18 07:25:37;;;;;;;6.87;4.70;;;;;;;17.89;73.85;98910.58;1788997;79;21034;-75
2021/05/18 07:28:08;;;;;;;8.33;5.20;;;;;;;18.03;73.57;98907.38;1789497;80;21774;-74
2021/05/18 07:30:40;;;;;;;9.15;5.05;;;;;;;18.16;72.96;98907.40;1793100;78;20976;-73
2021/05/18 07:33:07;;;;;;;10.53;4.75;;;;;;;18.32;72.57;98911.48;1791388;78;20987;-74
2021/05/18 07:35:35;;;;;;;13.25;5.33;;;;;;;18.38;70.62;98909.84;1790365;80;21007;-74
2021/05/18 07:38:02;;;;;;;6.20;3.72;;;;;;;18.33;69.87;98905.62;1790123;78;21038;-75
2021/05/18 07:40:29;;;;;;;4.55;2.80;;;;;;;18.29;69.39;98914.58;1789549;80;21773;-74
2021/05/18 07:42:55;;;;;;;7.95;3.42;;;;;;;18.27;68.79;98912.12;1787058;80;20967;-74
2021/05/18 07:45:26;;;;;;;5.50;3.37;;;;;;;18.29;69.09;98913.24;1785179;80;21059;-73
2021/05/18 07:47:52;;;;;;;4.67;3.20;;;;;;;18.35;68.80;98917.77;1787144;79;21068;-73
2021/05/18 07:50:32;;;;;;;4.75;3.52;;;;;;;18.39;69.11;98920.84;1785106;80;21610;-73
2021/05/18 08:02:18;;;;;;;3.92;2.67;;;;;;;18.64;68.58;98917.83;1782180;80;20995;-76
2021/05/18 08:06:22;;;;;;;3.20;2.00;;;;;;;18.82;67.57;98907.84;1785064;80;21767;-74
2021/05/18 08:08:48;;;;;;;3.17;2.20;;;;;;;18.87;66.37;98914.18;1785061;80;20979;-74
2021/05/18 08:11:15;;;;;;;3.52;2.40;;;;;;;18.92;65.25;98907.39;1785063;80;21490;-74
2021/05/18 08:13:42;;;;;;;3.00;2.05;;;;;;;18.91;64.89;98905.72;1785156;80;21004;-75
2021/05/18 09:49:38;;;;;;;4.08;2.52;;;;;;;20.12;62.12;98852.06;1730602;82;20981;-73
2021/05/18 10:38:44;;;;;;;5.65;3.55;;;;;;;22.02;55.35;98797.41;1735283;82;21784;-78
2021/05/18 10:41:24;;;;;;;12.65;3.33;;;;;;;22.04;54.03;98796.64;1734527;82;21041;-77
2021/05/18 10:44:01;;;;;;;5.90;2.98;;;;;;;22.19;54.69;98803.72;1737111;80;21097;-78
2021/05/18 10:46:32;;;;;;;6.65;3.20;;;;;;;22.50;53.92;98796.34;1744485;82;20993;-77
2021/05/18 10:49:05;;;;;;;5.42;3.45;;;;;;;22.74;52.05;98789.00;1742863;80;20989;-78
2021/05/18 10:51:45;;;;;;;5.25;3.10;;;;;;;22.88;52.13;98789.59;1732575;80;21817;-77
2021/05/18 10:54:21;;;;;;;4.80;2.87;;;;;;;23.00;51.26;98780.92;1743576;80;21060;-78
2021/05/18 10:57:11;;;;;;;4.17;2.75;;;;;;;22.99;49.63;98770.69;1743739;80;21100;-79
2021/05/18 10:59:54;;;;;;;4.05;2.85;;;;;;;22.94;49.00;98776.49;1741676;80;21046;-79
2021/05/18 11:02:40;;;;;;;6.85;3.10;;;;;;;22.99;50.60;98773.37;1743839;80;21038;-80
2021/05/18 11:05:11;;;;;;;5.30;2.80;;;;;;;23.06;50.18;98757.05;1719537;80;21764;-79
2021/05/18 11:07:43;;;;;;;6.40;2.80;;;;;;;23.19;51.18;98755.95;1743654;80;20985;-79
2021/05/18 11:10:17;;;;;;;6.12;2.87;;;;;;;23.41;50.51;98751.47;1744192;80;21105;-81
2021/05/18 11:12:47;;;;;;;6.00;3.10;;;;;;;23.50;48.92;98747.84;1735732;80;21054;-79
2021/05/18 11:15:16;;;;;;;4.92;2.75;;;;;;;23.49;49.47;98745.68;1743888;80;21521;-77
2021/05/18 11:17:47;;;;;;;5.25;2.85;;;;;;;23.62;50.67;98739.98;1716481;82;21794;-74
2021/05/18 11:23:23;;;;;;;5.90;4.10;;;;;;;24.19;52.47;98744.30;1716061;83;21061;-75
2021/05/18 11:25:39;;;;;;;5.55;3.80;;;;;;;24.28;52.62;98744.14;1702032;83;21034;-74
2021/05/18 11:28:18;;;;;;;8.80;3.85;;;;;;;24.12;51.87;98744.47;1736756;81;20974;-74
2021/05/18 11:30:56;;;;;;;7.72;4.12;;;;;;;23.71;51.86;98747.12;1743452;82;21762;-74
2021/05/18 11:33:43;;;;;;;4.65;3.98;;;;;;;23.17;53.08;98742.73;1743606;82;21099;-76
2021/05/18 11:36:22;;;;;;;6.80;3.83;;;;;;;22.76;53.94;98754.58;1744292;82;21570;-76
2021/05/18 11:38:58;;;;;;;6.50;4.00;;;;;;;22.33;55.22;98754.55;1741726;80;21480;-75
2021/05/18 11:41:31;;;;;;;7.28;4.58;;;;;;;22.00;56.30;98755.12;1736450;80;20977;-76
2021/05/18 11:43:59;;;;;;;6.00;4.30;;;;;;;21.88;57.02;98752.98;1741478;81;22512;-77
2021/05/18 11:46:28;;;;;;;8.65;4.50;;;;;;;21.94;57.44;98748.03;1711260;83;21029;-77
2021/05/18 11:49:13;;;;;;;7.42;4.15;;;;;;;21.91;57.48;98744.47;1677352;84;21515;-73
2021/05/18 11:51:49;;;;;;;5.05;3.95;;;;;;;21.93;57.55;98725.70;1702329;83;21052;-74
2021/05/18 11:54:18;;;;;;;4.83;3.87;;;;;;;22.00;57.47;98729.59;1699737;83;20988;-75
2021/05/18 11:56:45;;;;;;;5.87;4.03;;;;;;;22.13;57.45;98736.11;1699310;82;21717;-75
2021/05/18 11:59:21;;;;;;;5.05;4.40;;;;;;;22.33;57.52;98726.30;1711460;83;21538;-75
2021/05/18 12:01:56;;;;;;;5.17;3.70;;;;;;;22.40;56.12;98719.45;1702233;84;21010;-73
2021/05/18 12:04:25;;;;;;;6.37;3.70;;;;;;;22.29;55.13;98718.41;1705639;83;21077;-75
2021/05/18 12:07:10;;;;;;;7.42;3.55;;;;;;;21.95;55.75;98716.05;1670482;83;21045;-73
2021/05/18 12:09:47;;;;;;;5.60;3.52;;;;;;;21.75;56.65;98712.92;1682142;85;23173;-73
2021/05/18 12:12:15;;;;;;;6.42;4.47;;;;;;;21.75;57.93;98710.23;1693655;84;21094;-74
2021/05/18 12:14:48;;;;;;;4.33;3.65;;;;;;;21.74;57.64;98712.63;1676493;84;21058;-74
2021/05/18 12:17:27;;;;;;;5.78;3.90;;;;;;;21.74;57.76;98715.31;1702279;84;21072;-74
2021/05/18 12:19:55;;;;;;;6.47;3.17;;;;;;;21.65;57.53;98715.66;1709974;82;21573;-74
2021/05/18 12:22:22;;;;;;;5.00;3.33;;;;;;;21.54;57.48;98713.80;1711881;82;22155;-74
2021/05/18 12:24:48;;;;;;;7.87;3.30;;;;;;;21.31;56.59;98715.11;1710278;83;20976;-71
2021/05/18 12:27:14;;;;;;;8.38;3.80;;;;;;;21.07;56.83;98720.94;1711969;83;20979;-73
2021/05/18 12:29:57;;;;;;;5.55;3.83;;;;;;;20.84;56.73;98714.47;1703882;83;21137;-74
2021/05/18 12:32:34;;;;;;;6.12;4.00;;;;;;;20.62;57.12;98701.77;1704296;83;21034;-74
2021/05/18 12:35:19;;;;;;;4.95;3.87;;;;;;;20.46;57.88;98708.07;1699284;84;22368;-73
2021/05/18 12:37:49;;;;;;;5.60;3.80;;;;;;;20.29;58.43;98712.37;1701193;82;20978;-74
2021/05/18 12:40:29;;;;;;;7.37;4.70;;;;;;;20.08;59.10;98708.81;1699132;83;20994;-74
2021/05/18 12:43:15;;;;;;;7.45;4.17;;;;;;;19.92;59.50;98707.53;1666492;84;21581;-74
2021/05/18 12:45:42;;;;;;;6.97;4.25;;;;;;;19.76;59.84;98704.91;1715016;83;21105;-73
2021/05/18 12:48:12;;;;;;;7.05;4.45;;;;;;;19.59;60.37;98700.66;1724598;81;22558;-74
2021/05/18 12:50:47;;;;;;;8.15;4.50;;;;;;;19.53;60.79;98695.33;1703012;84;21098;-77
2021/05/18 12:53:27;;;;;;;5.30;4.22;;;;;;;19.43;61.00;98693.97;1704636;84;21596;-74
2021/05/18 12:55:55;;;;;;;10.40;4.47;;;;;;;19.37;61.36;98694.84;1704670;84;21538;-74
2021/05/18 12:58:33;;;;;;;5.78;4.15;;;;;;;19.32;61.63;98695.21;1704724;84;21499;-75
2021/05/18 13:01:13;;;;;;;5.85;4.30;;;;;;;19.33;61.96;98704.36;1704807;84;21791;-76
2021/05/18 13:03:44;;;;;;;10.08;4.70;;;;;;;19.38;62.07;98707.18;1704752;84;21094;-76
2021/05/18 13:06:11;;;;;;;5.72;2.40;;;;;;;19.37;61.96;98721.61;1681299;84;21113;-75
2021/05/18 13:08:41;;;;;;;4.87;2.00;;;;;;;19.35;59.20;98759.84;1704050;84;21498;-74
2021/05/18 13:12:10;;;;;;;2.33;1.55;;;;;;;19.29;56.66;98768.72;1724923;83;20962;-76
2021/05/18 13:13:55;;;;;;;2.50;1.80;;;;;;;19.09;56.11;98757.34;1721259;83;21803;-77
2021/05/18 13:16:31;;;;;;;5.05;1.87;;;;;;;18.80;55.86;98751.54;1673420;84;21118;-75
2021/05/18 13:19:06;;;;;;;3.33;1.60;;;;;;;18.54;57.05;98770.38;1719224;82;21401;-73
2021/05/18 13:21:55;;;;;;;4.83;1.80;;;;;;;18.29;59.61;98772.92;1708322;82;21141;-73
2021/05/18 13:27:09;;;;;;;4.90;1.98;;;;;;;17.54;62.75;98804.42;1707359;84;21721;-73
2021/05/18 13:29:36;;;;;;;2.22;1.72;;;;;;;17.23;63.99;98822.34;1719912;82;20963;-73
2021/05/18 13:32:03;;;;;;;2.83;1.75;;;;;;;17.03;65.19;98839.64;1709197;83;21060;-72
2021/05/18 13:34:30;;;;;;;2.52;1.52;;;;;;;16.82;65.51;98843.27;1704176;84;21022;-74
2021/05/18 13:36:56;;;;;;;3.22;1.40;;;;;;;16.64;65.67;98834.13;1723101;82;20875;-76
2021/05/18 13:39:26;;;;;;;3.83;1.55;;;;;;;16.40;65.71;98836.25;1726255;82;21805;-73
2021/05/18 13:41:53;;;;;;;4.40;1.60;;;;;;;16.22;66.53;98838.62;1696079;84;20990;-73
2021/05/18 13:44:20;;;;;;;4.10;1.60;;;;;;;16.09;66.54;98842.52;1705734;81;21610;-73
2021/05/18 13:46:48;;;;;;;4.72;2.92;;;;;;;15.97;66.79;98844.39;1723503;83;21058;-72
2021/05/18 13:49:16;;;;;;;4.08;2.42;;;;;;;15.90;67.40;98853.33;1723420;83;20990;-75
2021/05/18 13:51:43;;;;;;;5.10;1.82;;;;;;;15.79;67.88;98860.01;1723624;83;21791;-77
2021/05/18 13:54:10;;;;;;;3.15;1.80;;;;;;;15.66;68.87;98851.41;1723645;83;21619;-77
2021/05/18 13:56:37;;;;;;;2.70;1.52;;;;;;;15.53;69.74;98854.41;1721524;83;21454;-76
2021/05/18 13:59:04;;;;;;;2.40;1.60;;;;;;;15.37;70.34;98844.36;1696706;82;21489;-75
2021/05/18 14:01:30;;;;;;;2.70;1.57;;;;;;;15.24;70.80;98836.73;1723401;81;21053;-81
2021/05/18 14:03:57;;;;;;;2.10;1.80;;;;;;;15.14;71.23;98836.53;1696013;82;21741;-75
2021/05/18 14:06:23;;;;;;;3.35;2.08;;;;;;;15.10;71.84;98830.46;1732858;81;21070;-77
2021/05/18 14:08:51;;;;;;;5.05;2.42;;;;;;;15.04;72.32;98825.38;1723652;83;21090;-75
2021/05/18 14:11:19;;;;;;;6.12;2.50;;;;;;;15.00;72.82;98816.14;1728184;81;20998;-76
2021/05/18 14:13:51;;;;;;;5.87;2.05;;;;;;;15.00;73.29;98813.99;1720743;81;21389;-71
2021/05/18 14:16:19;;;;;;;4.08;2.47;;;;;;;14.99;73.74;98813.17;1719350;81;21801;-74
2021/05/18 14:18:49;;;;;;;3.52;2.50;;;;;;;14.98;74.06;98812.03;1689507;81;21048;-78
2021/05/18 14:21:20;;;;;;;3.75;2.70;;;;;;;14.96;74.38;98806.05;1723328;83;20986;-79
2021/05/18 14:26:20;;;;;;;5.05;2.67;;;;;;;14.96;74.99;98796.27;1723932;81;21422;-75
2021/05/18 14:28:47;;;;;;;7.87;3.77;;;;;;;14.98;75.12;98790.77;1723023;81;21746;-73
2021/05/18 14:31:14;;;;;;;5.85;3.98;;;;;;;14.98;75.07;98782.78;1723130;81;21090;-72
2021/05/18 14:33:43;;;;;;;9.73;4.87;;;;;;;14.96;75.06;98773.67;1723618;83;21073;-72
2021/05/18 14:36:11;;;;;;;7.92;5.00;;;;;;;14.99;75.19;98771.14;1726484;81;20994;-71
2021/05/18 14:38:40;;;;;;;9.30;5.25;;;;;;;15.00;75.27;98762.97;1723333;83;21030;-72
2021/05/18 14:44:01;;;;;;;14.90;4.60;;;;;;;14.99;75.35;98749.87;1742791;81;21056;-73
2021/05/18 14:46:39;;;;;;;6.08;4.00;;;;;;;15.04;75.41;98746.12;1749661;80;21077;-71
2021/05/18 14:56:53;;;;;;;8.65;4.40;;;;;;;15.22;75.71;98747.00;1723232;83;21104;-71
2021/05/18 14:59:21;;;;;;;15.60;5.92;;;;;;;15.21;75.75;98739.53;1723360;81;21029;-71
2021/05/18 15:01:48;;;;;;;11.83;7.17;;;;;;;15.24;75.85;98733.00;1753512;80;21105;-72
2021/05/18 15:04:15;;;;;;;16.12;8.25;;;;;;;15.30;75.96;98735.73;1734013;81;21005;-72
2021/05/18 15:06:43;;;;;;;18.35;8.93;;;;;;;15.34;76.04;98732.98;1681929;81;21820;-72
2021/05/18 15:09:10;;;;;;;21.50;10.32;;;;;;;15.36;76.12;98722.17;1731478;81;21978;-72
2021/05/18 15:11:36;;;;;;;27.95;12.68;;;;;;;15.40;76.25;98717.59;1731732;82;20965;-72
2021/05/18 15:14:08;;;;;;;35.00;16.97;;;;;;;15.47;76.39;98709.67;1735309;81;21001;-71
2021/05/18 15:16:35;;;;;;;41.75;19.30;;;;;;;15.51;76.38;98722.89;1731304;82;21034;-71
2021/05/18 15:19:17;;;;;;;43.95;21.70;;;;;;;15.51;76.41;98723.40;1731716;82;21672;-71
2021/05/18 15:21:42;;;;;;;45.30;21.65;;;;;;;15.56;76.64;98715.67;1730988;82;21070;-71
2021/05/18 15:24:09;;;;;;;43.15;21.82;;;;;;;15.64;76.80;98720.37;1734209;81;21067;-71
2021/05/18 15:26:36;;;;;;;46.23;21.68;;;;;;;15.76;76.93;98718.50;1737088;82;21023;-72
2021/05/18 15:29:05;;;;;;;54.00;20.32;;;;;;;15.97;77.40;98716.56;1741362;82;21039;-72
2021/05/18 15:31:33;;;;;;;47.58;19.67;;;;;;;16.31;77.63;98712.23;1731335;82;21579;-72
2021/05/18 15:34:00;;;;;;;44.33;16.17;;;;;;;16.71;77.47;98703.05;1730059;82;20984;-72
2021/05/18 15:36:28;;;;;;;35.05;13.30;;;;;;;17.04;76.75;98707.91;1732156;82;20986;-72
2021/05/18 15:38:56;;;;;;;29.65;10.85;;;;;;;17.19;75.96;98714.40;1732616;82;20990;-71
2021/05/18 15:41:22;;;;;;;23.45;9.78;;;;;;;17.36;75.56;98718.80;1732561;82;21128;-72
2021/05/18 15:43:49;;;;;;;19.42;9.00;;;;;;;17.49;74.69;98712.13;1729549;82;22137;-72
2021/05/18 15:46:15;;;;;;;14.87;7.67;;;;;;;17.64;74.18;98716.72;1726804;82;21473;-72
2021/05/18 15:48:42;;;;;;;11.22;6.08;;;;;;;17.79;73.52;98721.06;1731338;82;21563;-72
2021/05/18 15:51:10;;;;;;;13.90;5.70;;;;;;;17.87;72.30;98706.97;1730291;82;21013;-73
2021/05/18 15:53:36;;;;;;;7.90;4.25;;;;;;;17.91;71.17;98712.70;1731303;82;20985;-73
2021/05/18 15:56:07;;;;;;;6.03;3.33;;;;;;;17.90;70.46;98712.40;1730042;82;21774;-73
2021/05/18 15:58:35;;;;;;;6.37;3.70;;;;;;;17.92;69.78;98704.99;1730534;82;20998;-76
2021/05/18 16:01:02;;;;;;;5.67;3.70;;;;;;;17.94;69.20;98710.94;1723730;82;21128;-76
2021/05/18 16:03:28;;;;;;;12.00;6.60;;;;;;;17.96;68.61;98704.89;1725862;81;20994;-75
2021/05/18 16:05:58;;;;;;;18.10;9.53;;;;;;;17.92;68.39;98704.99;1730469;82;21511;-73
2021/05/18 16:11:04;;;;;;;27.52;13.60;;;;;;;17.63;68.45;98696.39;1742886;80;21038;-73
2021/05/18 16:13:32;;;;;;;28.23;14.28;;;;;;;17.49;68.38;98689.96;1747472;80;21131;-71
2021/05/18 16:16:10;;;;;;;34.30;16.42;;;;;;;17.42;68.64;98684.62;1722822;82;21084;-72
2021/05/18 16:18:42;;;;;;;35.48;16.00;;;;;;;17.43;68.72;98685.74;1746918;81;20957;-73
2021/05/18 16:21:08;;;;;;;31.27;15.20;;;;;;;17.46;68.90;98687.17;1740390;82;21784;-74
2021/05/18 16:23:37;;;;;;;25.10;12.60;;;;;;;17.45;69.19;98685.53;1749221;81;21045;-74
2021/05/18 16:26:03;;;;;;;22.77;10.55;;;;;;;17.44;69.64;98685.23;1740012;81;21030;-73
2021/05/18 16:28:29;;;;;;;18.77;8.23;;;;;;;17.38;70.02;98674.88;1741873;81;20965;-73
2021/05/18 16:30:57;;;;;;;16.87;7.33;;;;;;;17.27;70.49;98683.48;1750186;80;20975;-73
2021/05/18 16:33:24;;;;;;;21.80;6.75;;;;;;;17.21;70.84;98675.50;1750193;81;21723;-73
2021/05/18 16:35:51;;;;;;;25.92;6.80;;;;;;;17.12;71.13;98672.22;1749254;80;21054;-70
2021/05/18 16:38:18;;;;;;;22.93;8.13;;;;;;;16.96;71.28;98668.61;1748955;81;21014;-71
2021/05/18 16:40:44;;;;;;;30.12;8.53;;;;;;;16.83;71.59;98666.25;1746680;81;21573;-72
2021/05/18 16:43:11;;;;;;;25.55;9.00;;;;;;;16.76;71.92;98663.26;1749714;80;21570;-70